Denver, Colorado
Traffic Map
Current Weather Conditions
Denver, Colorado
Few Clouds
Few Clouds
23°
Feels Like: 23°
Wind Chill: 23° Ceiling: Unl
Heat Index: 23° Visibility: 10mi
Dew Point: Wind: 17mph
Humidity: 25% Direction: 170° (S)
Pressure: 30.08in Gusts: 0mph
Raw Report DataKBKF 202158Z 17015KT 10SM FEW100 FEW140 23/02 A3008 RMK AO2A SLP125 T02330022
Traffic Incident Summary
Active as of:
Severity:
Category:
InformationThere was an issue retrieving the traffic information for this location. Please try a different location or try again shortly.
Advertisements
Track Severe Weather on mobile